createdAt,value
2023-02-17T00:03:27.170Z,91.28
2023-02-17T00:08:35.333Z,91.43
2023-02-17T00:13:42.725Z,91.50
2023-02-17T00:18:49.890Z,92.03
2023-02-17T00:23:58.739Z,92.32
2023-02-17T00:29:05.263Z,92.30
2023-02-17T00:34:12.070Z,92.15
2023-02-17T00:39:20.802Z,91.95
2023-02-17T00:44:28.695Z,92.06
2023-02-17T00:49:35.580Z,92.05
2023-02-17T00:54:43.626Z,91.99
2023-02-17T00:59:51.119Z,92.03
2023-02-17T01:04:57.600Z,92.05
2023-02-17T01:10:06.105Z,91.94
2023-02-17T01:15:14.283Z,92.17
2023-02-17T01:20:24.244Z,91.83
2023-02-17T01:25:32.697Z,91.84
2023-02-17T01:30:39.525Z,92.01
2023-02-17T01:35:47.834Z,91.94
2023-02-17T01:40:56.264Z,91.87
2023-02-17T01:46:05.043Z,91.84
2023-02-17T01:51:18.797Z,91.68
2023-02-17T01:56:28.705Z,91.83
2023-02-17T02:01:38.231Z,91.74
2023-02-17T02:06:46.874Z,91.63
2023-02-17T02:11:55.370Z,91.79
2023-02-17T02:17:12.527Z,91.81
2023-02-17T02:22:54.733Z,91.74
2023-02-17T02:28:18.058Z,91.94
2023-02-17T02:33:35.254Z,91.99
2023-02-17T02:38:49.597Z,91.85
2023-02-17T02:43:56.600Z,92.25
2023-02-17T02:49:06.369Z,92.91
2023-02-17T02:54:48.845Z,93.18
2023-02-17T03:00:14.716Z,93.43
2023-02-17T03:05:34.502Z,93.39
2023-02-17T03:10:50.113Z,93.43
2023-02-17T03:15:57.065Z,93.58
2023-02-17T03:21:14.119Z,93.69
2023-02-17T03:26:21.518Z,93.69
2023-02-17T03:31:30.631Z,94.11
2023-02-17T03:36:38.511Z,94.16
2023-02-17T03:41:45.004Z,94.17
2023-02-17T03:46:51.327Z,94.51
2023-02-17T03:51:59.788Z,94.43
2023-02-17T03:57:06.622Z,94.74
2023-02-17T04:02:12.989Z,94.77
2023-02-17T04:07:20.754Z,94.87
2023-02-17T04:12:27.307Z,94.74
2023-02-17T04:17:33.810Z,94.85
2023-02-17T04:22:41.999Z,94.94
2023-02-17T04:27:48.442Z,95.14
2023-02-17T04:32:54.617Z,95.17
2023-02-17T04:38:02.503Z,95.21
2023-02-17T04:43:08.880Z,95.30
2023-02-17T04:48:15.086Z,95.20
2023-02-17T04:53:22.960Z,95.33
2023-02-17T04:58:29.340Z,95.53
2023-02-17T05:03:35.622Z,95.53
2023-02-17T05:08:43.636Z,95.56
2023-02-17T05:13:50.058Z,95.36
2023-02-17T05:18:56.501Z,95.68
2023-02-17T05:24:04.427Z,95.40
2023-02-17T05:29:10.883Z,95.36
2023-02-17T05:34:17.328Z,95.31
2023-02-17T05:39:25.154Z,95.50
2023-02-17T05:44:31.610Z,95.47
2023-02-17T05:49:37.798Z,95.40
2023-02-17T05:54:45.581Z,95.45
2023-02-17T05:59:51.832Z,95.41
2023-02-17T06:04:58.373Z,95.58
2023-02-17T06:10:07.850Z,95.67
2023-02-17T06:15:14.429Z,95.80
2023-02-17T06:20:21.341Z,95.53
2023-02-17T06:25:29.396Z,95.98
2023-02-17T06:30:36.115Z,96.12
2023-02-17T06:35:42.420Z,96.15
2023-02-17T06:40:50.395Z,96.18
2023-02-17T06:45:56.990Z,96.00
2023-02-17T06:51:03.586Z,96.11
2023-02-17T06:56:11.575Z,96.21
2023-02-17T07:01:20.320Z,96.34
2023-02-17T07:06:28.492Z,96.07
2023-02-17T07:11:37.213Z,96.18
2023-02-17T07:16:43.969Z,96.00
2023-02-17T07:21:50.373Z,96.38
2023-02-17T07:26:58.135Z,96.11
2023-02-17T07:32:05.185Z,96.00
2023-02-17T07:37:11.701Z,96.14
2023-02-17T07:42:19.625Z,95.91
2023-02-17T07:47:26.794Z,95.81
2023-02-17T07:52:33.377Z,95.58
2023-02-17T07:57:41.359Z,95.56
2023-02-17T08:02:47.699Z,95.26
2023-02-17T08:08:14.319Z,95.23
2023-02-17T08:13:22.188Z,94.96
2023-02-17T08:18:30.585Z,94.70
2023-02-17T08:23:38.747Z,94.47
2023-02-17T08:28:47.230Z,94.21
2023-02-17T08:33:54.064Z,93.89
2023-02-17T08:39:01.830Z,93.80
2023-02-17T08:44:13.953Z,93.74
2023-02-17T08:49:23.021Z,94.00
2023-02-17T08:54:29.305Z,93.94
2023-02-17T08:59:37.091Z,93.84
2023-02-17T09:04:43.694Z,93.79
2023-02-17T09:09:49.995Z,93.78
2023-02-17T09:14:57.898Z,94.03
2023-02-17T09:20:11.228Z,94.44
2023-02-17T09:26:02.896Z,94.44
2023-02-17T09:31:28.348Z,94.85
2023-02-17T09:36:40.196Z,95.00
2023-02-17T09:41:50.293Z,94.92
2023-02-17T09:47:03.841Z,95.44
2023-02-17T09:52:15.888Z,95.92
2023-02-17T09:57:28.854Z,95.98
2023-02-17T10:02:48.541Z,96.15
2023-02-17T10:08:03.861Z,96.23
2023-02-17T10:13:12.068Z,96.18
2023-02-17T10:18:29.854Z,96.48
2023-02-17T10:23:37.089Z,96.34
2023-02-17T10:29:07.390Z,96.55
2023-02-17T10:34:28.186Z,96.49
2023-02-17T10:39:48.682Z,96.29
2023-02-17T10:45:01.318Z,96.11
2023-02-17T10:50:21.824Z,96.05
2023-02-17T10:55:39.278Z,95.75
2023-02-17T11:00:49.332Z,95.47
2023-02-17T11:06:00.623Z,95.70
2023-02-17T11:11:16.185Z,95.54
2023-02-17T11:16:27.834Z,95.57
2023-02-17T11:21:36.651Z,95.51
2023-02-17T11:26:44.861Z,95.49
2023-02-17T11:31:58.857Z,95.56
2023-02-17T11:37:24.782Z,95.63
2023-02-17T11:42:34.468Z,95.49
2023-02-17T11:48:21.997Z,95.77
2023-02-17T11:53:48.858Z,95.47
2023-02-17T11:59:31.061Z,95.65
2023-02-17T12:04:44.092Z,95.39
2023-02-17T12:10:06.026Z,95.22
2023-02-17T12:15:33.174Z,95.36
2023-02-17T12:20:52.535Z,95.27
2023-02-17T12:26:06.267Z,95.50
2023-02-17T12:31:27.384Z,95.32
2023-02-17T12:36:38.748Z,95.52
2023-02-17T12:41:55.948Z,95.87
2023-02-17T12:47:11.728Z,96.29
2023-02-17T12:52:23.991Z,96.27
2023-02-17T12:57:42.808Z,96.15
2023-02-17T13:02:49.581Z,96.22
2023-02-17T13:08:02.166Z,96.06
2023-02-17T13:13:15.761Z,96.21
2023-02-17T13:18:32.864Z,96.53
2023-02-17T13:23:42.109Z,96.50
2023-02-17T13:28:51.310Z,96.48
2023-02-17T13:34:01.079Z,96.48
2023-02-17T13:39:29.164Z,96.55
2023-02-17T13:44:42.606Z,96.84
2023-02-17T13:49:55.504Z,96.68
2023-02-17T13:55:04.874Z,96.74
2023-02-17T14:00:25.286Z,96.83
2023-02-17T14:05:42.208Z,96.90
2023-02-17T14:10:49.161Z,96.72
2023-02-17T14:16:00.295Z,96.88
2023-02-17T14:21:10.893Z,97.19
2023-02-17T14:26:40.103Z,97.12
2023-02-17T14:31:51.609Z,96.92
2023-02-17T14:37:09.976Z,97.15
2023-02-17T14:42:16.434Z,97.27
2023-02-17T14:47:26.255Z,97.36
2023-02-17T14:52:33.049Z,97.57
2023-02-17T14:57:40.793Z,97.95
2023-02-17T15:02:49.250Z,97.91
2023-02-17T15:07:55.982Z,98.16
2023-02-17T15:13:03.555Z,98.36
2023-02-17T15:18:14.131Z,98.38
2023-02-17T15:23:23.496Z,98.53
2023-02-17T15:28:30.734Z,98.52
2023-02-17T15:33:42.492Z,98.37
2023-02-17T15:38:50.101Z,98.63
2023-02-17T15:43:59.389Z,98.79
2023-02-17T15:49:08.738Z,99.01
2023-02-17T15:54:19.528Z,99.11
2023-02-17T15:59:30.176Z,99.08
2023-02-17T16:04:38.558Z,99.26
2023-02-17T16:09:47.424Z,98.99
2023-02-17T16:14:55.809Z,99.46
2023-02-17T16:20:06.057Z,99.35
2023-02-17T16:25:14.977Z,99.29
2023-02-17T16:30:25.857Z,99.27
2023-02-17T16:35:35.522Z,99.55
2023-02-17T16:40:49.081Z,99.34
2023-02-17T16:45:59.642Z,99.56
2023-02-17T16:51:11.610Z,99.57
2023-02-17T16:56:23.263Z,99.45
2023-02-17T17:01:31.226Z,99.51
2023-02-17T17:06:59.827Z,99.48
2023-02-17T17:12:08.844Z,99.62
2023-02-17T17:17:21.729Z,99.55
2023-02-17T17:22:33.074Z,99.52
2023-02-17T17:27:42.191Z,99.80
2023-02-17T17:32:50.591Z,99.48
2023-02-17T17:38:00.960Z,99.53
2023-02-17T17:43:08.400Z,99.52
2023-02-17T17:48:19.828Z,99.47
2023-02-17T17:53:32.205Z,99.73
2023-02-17T17:58:40.581Z,99.63
2023-02-17T18:03:49.663Z,99.58
2023-02-17T18:09:05.755Z,99.59
2023-02-17T18:14:18.327Z,99.84
2023-02-17T18:19:28.411Z,100.00
2023-02-17T18:24:40.545Z,99.81
2023-02-17T18:29:54.177Z,100.00
2023-02-17T18:35:03.679Z,100.00
2023-02-17T18:40:15.507Z,100.00
2023-02-17T18:45:28.565Z,100.00
2023-02-17T18:50:38.405Z,100.00
2023-02-17T18:55:48.315Z,100.00
2023-02-17T19:00:58.845Z,100.00
2023-02-17T19:06:16.948Z,100.00
2023-02-17T19:11:33.554Z,100.00
2023-02-17T19:16:45.459Z,100.00
2023-02-17T19:21:55.661Z,100.00
2023-02-17T19:27:06.822Z,100.00
2023-02-17T19:32:15.543Z,100.00
2023-02-17T19:37:25.167Z,100.00
2023-02-17T19:42:37.473Z,100.00
2023-02-17T19:47:51.710Z,100.00
2023-02-17T19:53:04.518Z,100.00
2023-02-17T19:58:18.756Z,100.00
2023-02-17T20:03:27.231Z,100.00
2023-02-17T20:08:37.260Z,100.00
2023-02-17T20:13:51.695Z,100.00
2023-02-17T20:19:03.655Z,100.00
2023-02-17T20:24:12.406Z,100.00
2023-02-17T20:29:32.342Z,100.00
2023-02-17T20:34:44.368Z,100.00
2023-02-17T20:39:53.168Z,100.00
2023-02-17T20:45:04.315Z,100.00
2023-02-17T20:50:17.132Z,100.00
2023-02-17T20:55:29.095Z,100.00
2023-02-17T21:00:38.284Z,100.00
2023-02-17T21:05:46.924Z,100.00
2023-02-17T21:10:57.412Z,100.00
2023-02-17T21:16:12.769Z,100.00
2023-02-17T21:21:27.233Z,100.00
2023-02-17T21:26:36.513Z,100.00
2023-02-17T21:31:45.131Z,100.00
2023-02-17T21:36:52.943Z,100.00
2023-02-17T21:42:00.752Z,100.00
2023-02-17T21:47:09.999Z,100.00
2023-02-17T21:52:17.025Z,99.73
2023-02-17T21:57:23.766Z,98.27
2023-02-17T22:02:35.210Z,96.67
2023-02-17T22:07:42.324Z,95.75
2023-02-17T22:12:49.852Z,95.26
2023-02-17T22:17:58.806Z,94.13
2023-02-17T22:23:05.249Z,92.65
2023-02-17T22:28:14.070Z,90.41
2023-02-17T22:33:22.295Z,89.75
2023-02-17T22:38:29.134Z,88.96
2023-02-17T22:43:37.324Z,88.17
2023-02-17T22:48:46.816Z,86.62
2023-02-17T22:53:53.888Z,85.71
2023-02-17T22:59:01.857Z,84.37
2023-02-17T23:04:09.870Z,84.44
2023-02-17T23:09:19.842Z,83.86
2023-02-17T23:14:30.190Z,83.23
2023-02-17T23:19:39.189Z,83.96
2023-02-17T23:24:45.385Z,83.29
2023-02-17T23:29:51.617Z,82.37
2023-02-17T23:34:59.434Z,81.87
2023-02-17T23:40:06.721Z,82.00
2023-02-17T23:45:13.848Z,81.72
2023-02-17T23:50:22.021Z,82.82
2023-02-17T23:55:28.526Z,83.00
